Time;durP1;ratioP1;P1;durP2;ratioP2;P2;SDS_P1;SDS_P2;PMS_P1;PMS_P2;Temp;Humidity;BMP_temperature;BMP_pressure;BME280_temperature;BME280_humidity;BME280_pressure;Samples;Min_cycle;Max_cycle;Signal;HPM_P1;HPM_P2
2022/09/13 00:01:24;;;;;;;6.07;4.05;;;18.10;74.90;;;;;;5015063;28;20022;-47
2022/09/13 00:03:50;;;;;;;7.32;4.75;;;18.10;74.90;;;;;;5015094;28;20033;-49
2022/09/13 00:06:18;;;;;;;8.55;4.95;;;18.10;75.20;;;;;;5015368;28;20030;-47
2022/09/13 00:08:45;;;;;;;5.25;4.72;;;18.10;75.80;;;;;;5014670;28;20030;-46
2022/09/13 00:11:22;;;;;;;8.50;4.55;;;18.00;76.00;;;;;;5015258;28;20034;-49
2022/09/13 00:13:48;;;;;;;8.40;5.32;;;18.00;76.40;;;;;;5015071;28;20053;-47
2022/09/13 00:16:17;;;;;;;6.15;4.55;;;17.90;76.40;;;;;;5015059;28;20026;-47
2022/09/13 00:18:43;;;;;;;4.75;4.25;;;17.90;76.30;;;;;;5014854;28;20072;-48
2022/09/13 00:21:12;;;;;;;6.88;4.47;;;17.90;75.80;;;;;;5015270;28;20438;-46
2022/09/13 00:23:37;;;;;;;3.70;3.13;;;18.00;75.80;;;;;;5014733;28;20068;-47
2022/09/13 00:26:09;;;;;;;4.53;3.20;;;18.00;74.80;;;;;;5014801;28;20057;-48
2022/09/13 00:28:35;;;;;;;7.93;4.20;;;18.10;74.30;;;;;;5014846;28;20123;-47
2022/09/13 00:31:05;;;;;;;3.95;3.30;;;18.10;74.20;;;;;;5014886;28;20101;-47
2022/09/13 00:33:31;;;;;;;5.80;3.53;;;18.20;74.30;;;;;;5014671;28;20029;-47
2022/09/13 00:35:57;;;;;;;5.15;3.88;;;18.10;74.30;;;;;;5014600;28;20022;-49
2022/09/13 00:38:23;;;;;;;4.95;3.50;;;18.10;74.60;;;;;;5014969;28;20018;-47
2022/09/13 00:40:49;;;;;;;3.90;3.50;;;18.10;74.60;;;;;;5014790;28;20026;-47
2022/09/13 00:43:38;;;;;;;5.10;3.72;;;18.00;74.60;;;;;;5014634;28;20033;-49
2022/09/13 00:46:05;;;;;;;7.07;4.60;;;18.00;74.40;;;;;;5014876;28;20022;-46
2022/09/13 00:48:33;;;;;;;4.85;3.60;;;18.00;75.00;;;;;;5014885;28;20344;-48
2022/09/13 00:51:01;;;;;;;5.50;3.50;;;18.00;75.30;;;;;;5014724;28;20030;-48
2022/09/13 00:53:40;;;;;;;4.72;3.80;;;18.00;75.40;;;;;;5014727;28;20057;-46
2022/09/13 00:56:11;;;;;;;4.85;3.72;;;18.00;75.40;;;;;;5014750;28;20101;-47
2022/09/13 00:58:41;;;;;;;4.03;3.13;;;18.00;75.30;;;;;;5014484;28;20018;-46
2022/09/13 01:01:10;;;;;;;4.57;3.30;;;18.10;75.60;;;;;;4996809;28;20036;-48
2022/09/13 01:03:36;;;;;;;5.28;4.10;;;18.10;75.30;;;;;;5014164;28;20058;-47
2022/09/13 01:06:10;;;;;;;9.45;3.15;;;18.10;74.90;;;;;;5013931;28;20415;-47
2022/09/13 01:08:39;;;;;;;6.70;3.95;;;18.10;74.60;;;;;;5014065;28;20029;-45
2022/09/13 01:11:10;;;;;;;4.57;2.90;;;18.10;73.10;;;;;;5014040;28;20129;-46
2022/09/13 01:13:37;;;;;;;6.25;3.17;;;18.20;73.30;;;;;;5014259;28;20088;-47
2022/09/13 01:16:03;;;;;;;3.97;3.20;;;18.10;73.30;;;;;;5013857;28;20525;-49
2022/09/13 01:18:28;;;;;;;4.05;3.28;;;18.00;73.70;;;;;;4995634;28;20018;-50
2022/09/13 01:21:12;;;;;;;6.25;4.05;;;17.90;73.70;;;;;;4995958;28;20113;-48
2022/09/13 01:23:43;;;;;;;5.00;3.97;;;17.90;74.30;;;;;;5013492;28;20026;-49
2022/09/13 01:26:46;;;;;;;9.60;5.22;;;17.80;75.00;;;;;;5013614;28;20022;-47
2022/09/13 01:29:23;;;;;;;5.32;3.75;;;17.80;75.10;;;;;;5013948;28;20057;-51
2022/09/13 01:31:56;;;;;;;3.72;3.15;;;17.70;75.20;;;;;;5013458;28;20026;-48
2022/09/13 01:34:43;;;;;;;5.25;3.33;;;17.70;75.30;;;;;;4996387;28;20017;-47
2022/09/13 01:37:45;;;;;;;8.45;3.75;;;17.70;75.60;;;;;;5013846;28;20033;-47
2022/09/13 01:44:02;;;;;;;4.63;3.35;;;17.70;75.40;;;;;;5013589;28;20072;-46
2022/09/13 01:46:43;;;;;;;9.10;3.38;;;17.70;75.80;;;;;;4995803;28;20026;-46
2022/09/13 01:49:29;;;;;;;7.22;3.60;;;17.60;76.00;;;;;;5013672;28;20033;-51
2022/09/13 01:52:03;;;;;;;6.88;3.67;;;17.70;75.30;;;;;;5013383;28;20030;-49
2022/09/13 01:54:56;;;;;;;5.18;3.65;;;17.80;74.80;;;;;;5013204;28;20022;-48
2022/09/13 01:57:34;;;;;;;6.70;3.60;;;18.00;73.70;;;;;;5013778;28;20481;-47
2022/09/13 02:00:12;;;;;;;4.68;3.38;;;18.20;72.60;;;;;;5013168;28;20087;-47
2022/09/13 02:03:03;;;;;;;5.97;3.45;;;18.20;72.30;;;;;;5013710;28;20394;-49
2022/09/13 02:05:43;;;;;;;5.07;3.03;;;18.20;72.20;;;;;;5013472;28;20021;-47
2022/09/13 02:08:12;;;;;;;;;;;18.20;72.30;;;;;;5013467;28;20433;-48
2022/09/13 02:10:43;;;;;;;7.63;3.67;;;18.20;72.10;;;;;;5012789;28;19921;-48
2022/09/13 02:13:14;;;;;;;4.82;3.10;;;18.30;71.70;;;;;;5013294;28;20022;-46
2022/09/13 02:15:47;;;;;;;4.80;3.28;;;18.30;71.40;;;;;;5013268;28;20022;-46
2022/09/13 02:18:29;;;;;;;4.13;3.20;;;18.30;71.40;;;;;;5013278;28;20071;-47
2022/09/13 02:21:00;;;;;;;4.00;2.88;;;18.40;71.10;;;;;;5013202;28;20034;-47
2022/09/13 02:23:35;;;;;;;3.80;2.85;;;18.40;70.90;;;;;;4995396;28;20581;-47
2022/09/13 02:26:05;;;;;;;5.55;2.85;;;18.40;71.00;;;;;;5012992;28;20148;-49
2022/09/13 02:28:36;;;;;;;4.13;2.55;;;18.40;71.00;;;;;;5013196;28;20099;-47
2022/09/13 02:31:03;;;;;;;;;;;18.40;71.20;;;;;;5014370;28;20025;-46
2022/09/13 02:33:45;;;;;;;3.35;2.80;;;18.30;71.00;;;;;;5016854;28;19921;-47
2022/09/13 02:36:25;;;;;;;6.05;3.33;;;18.40;70.70;;;;;;5017060;28;20025;-47
2022/09/13 02:38:54;;;;;;;3.58;2.53;;;18.30;71.10;;;;;;5017270;28;20447;-47
2022/09/13 02:41:26;;;;;;;7.27;3.40;;;18.30;71.70;;;;;;5016938;28;20354;-47
2022/09/13 02:44:06;;;;;;;3.85;3.17;;;18.30;71.60;;;;;;5016920;28;20272;-46
2022/09/13 02:47:04;;;;;;;6.50;2.78;;;18.30;71.50;;;;;;5016856;28;20025;-46
2022/09/13 02:50:24;;;;;;;4.88;2.72;;;18.30;71.60;;;;;;5016724;28;20470;-46
2022/09/13 02:53:08;;;;;;;4.57;2.70;;;18.30;71.80;;;;;;4936931;29;20087;-46
2022/09/13 02:55:40;;;;;;;4.72;2.95;;;18.30;71.70;;;;;;4936875;29;20310;-49
2022/09/13 02:58:25;;;;;;;5.05;2.53;;;18.40;71.50;;;;;;4978890;28;20505;-48
2022/09/13 03:00:51;;;;;;;7.18;2.88;;;18.40;70.90;;;;;;5016320;28;20022;-48
2022/09/13 03:03:16;;;;;;;4.32;2.75;;;18.50;70.90;;;;;;5016510;28;20121;-47
2022/09/13 03:05:43;;;;;;;12.27;2.78;;;18.60;70.00;;;;;;5016262;28;20029;-49
2022/09/13 03:08:11;;;;;;;5.10;2.90;;;18.60;70.00;;;;;;4999268;28;20121;-47
2022/09/13 03:11:06;;;;;;;5.45;2.75;;;18.60;70.30;;;;;;5015896;28;20502;-47
2022/09/13 03:14:04;;;;;;;3.78;2.20;;;18.60;70.30;;;;;;4999195;28;20117;-46
2022/09/13 03:16:45;;;;;;;3.65;2.53;;;18.70;69.90;;;;;;4998323;28;20109;-47
2022/09/13 03:19:22;;;;;;;4.55;2.60;;;18.80;69.80;;;;;;5016083;28;20041;-47
2022/09/13 03:21:53;;;;;;;6.88;2.60;;;18.70;70.30;;;;;;5015882;28;20026;-47
2022/09/13 03:24:33;;;;;;;2.80;2.45;;;18.70;70.40;;;;;;5015902;28;20022;-51
2022/09/13 03:27:32;;;;;;;5.47;2.53;;;18.80;70.00;;;;;;5016196;28;20018;-47
2022/09/13 03:30:04;;;;;;;2.58;2.38;;;18.70;70.30;;;;;;5016032;28;20080;-49
2022/09/13 03:32:35;;;;;;;4.20;2.35;;;18.50;70.90;;;;;;5016491;28;20018;-47
2022/09/13 03:35:09;;;;;;;3.30;2.30;;;18.60;70.90;;;;;;5015754;28;20036;-47
2022/09/13 03:37:42;;;;;;;5.15;2.63;;;18.60;70.50;;;;;;5015773;28;20057;-48
2022/09/13 03:40:14;;;;;;;3.70;2.22;;;18.60;70.60;;;;;;5015880;28;20113;-48
2022/09/13 03:43:07;;;;;;;9.43;2.80;;;18.60;71.20;;;;;;5015568;28;20022;-48
2022/09/13 03:45:37;;;;;;;3.90;2.47;;;18.50;71.60;;;;;;5006786;28;20045;-48
2022/09/13 03:48:03;;;;;;;;;;;18.50;71.40;;;;;;5016018;28;20081;-47
2022/09/13 03:50:30;;;;;;;12.95;3.28;;;18.40;71.50;;;;;;5015421;28;20376;-48
2022/09/13 03:53:03;;;;;;;2.85;2.35;;;18.40;71.70;;;;;;5015423;28;20073;-46
2022/09/13 03:55:32;;;;;;;4.90;2.55;;;18.40;71.80;;;;;;5015634;28;20038;-47
2022/09/13 03:57:57;;;;;;;3.35;2.85;;;18.40;72.10;;;;;;5015302;28;20093;-47
2022/09/13 04:00:23;;;;;;;2.40;2.10;;;18.40;71.70;;;;;;5016216;28;20119;-47
2022/09/13 04:02:49;;;;;;;3.70;2.55;;;18.40;71.70;;;;;;5015714;28;20026;-48
2022/09/13 04:05:15;;;;;;;5.18;2.95;;;18.50;71.50;;;;;;5015470;28;20037;-46
2022/09/13 04:07:41;;;;;;;3.80;2.28;;;18.50;71.40;;;;;;5015141;28;20389;-47
2022/09/13 04:10:07;;;;;;;3.05;2.75;;;18.50;71.30;;;;;;5014878;28;20405;-46
2022/09/13 04:12:34;;;;;;;3.97;2.70;;;18.40;71.30;;;;;;5015062;28;20064;-48
2022/09/13 04:14:59;;;;;;;4.90;2.45;;;18.50;71.60;;;;;;5015324;28;20022;-48
2022/09/13 04:17:25;;;;;;;2.55;2.08;;;18.40;72.10;;;;;;5015032;28;20109;-49
2022/09/13 04:19:50;;;;;;;5.93;3.03;;;18.40;71.80;;;;;;5015008;28;20129;-46
2022/09/13 04:22:16;;;;;;;5.43;2.80;;;18.50;71.60;;;;;;5014929;28;20466;-48
2022/09/13 04:24:43;;;;;;;5.05;2.90;;;18.40;72.00;;;;;;5014709;28;20040;-48
2022/09/13 04:27:08;;;;;;;2.72;2.20;;;18.30;72.20;;;;;;5015424;28;20042;-47
2022/09/13 04:29:34;;;;;;;4.10;2.80;;;18.40;71.80;;;;;;5014859;28;20033;-48
2022/09/13 04:32:00;;;;;;;5.20;2.92;;;18.50;71.40;;;;;;5014661;28;20052;-47
2022/09/13 04:34:26;;;;;;;6.00;2.90;;;18.60;71.00;;;;;;4997293;28;20033;-48
2022/09/13 04:36:52;;;;;;;5.30;2.97;;;18.50;71.40;;;;;;5014559;28;20083;-48
2022/09/13 04:39:19;;;;;;;3.97;2.47;;;18.50;71.80;;;;;;5014649;28;20041;-48
2022/09/13 04:41:47;;;;;;;9.23;2.55;;;18.50;72.30;;;;;;4996855;28;20018;-46
2022/09/13 04:44:15;;;;;;;4.30;2.60;;;18.50;72.30;;;;;;4996694;28;20029;-46
2022/09/13 04:46:41;;;;;;;5.65;2.97;;;18.50;72.50;;;;;;5014570;28;20467;-47
2022/09/13 04:49:09;;;;;;;3.75;2.85;;;18.40;73.20;;;;;;5014441;28;20029;-48
2022/09/13 04:51:34;;;;;;;6.18;2.72;;;18.40;72.90;;;;;;5014277;28;20113;-46
2022/09/13 04:54:00;;;;;;;3.85;2.97;;;18.40;73.70;;;;;;5013358;28;20097;-50
2022/09/13 04:56:26;;;;;;;5.22;3.15;;;18.40;73.50;;;;;;5014106;28;20454;-46
2022/09/13 04:58:53;;;;;;;5.93;2.67;;;18.40;74.00;;;;;;5013863;28;20076;-49
2022/09/13 18:01:13;;;;;;;7.05;4.60;;;22.10;74.10;;;;;;5070341;28;20379;-47
2022/09/13 18:03:39;;;;;;;6.22;3.97;;;22.10;74.30;;;;;;5069949;28;20025;-48
2022/09/13 18:06:07;;;;;;;7.00;4.57;;;22.20;73.70;;;;;;5071730;28;20370;-50
2022/09/13 18:08:35;;;;;;;5.10;4.03;;;22.20;73.50;;;;;;5068786;28;20036;-50
2022/09/13 18:11:04;;;;;;;3.92;3.20;;;22.20;73.00;;;;;;5069664;28;20507;-47
2022/09/13 18:13:30;;;;;;;7.03;4.10;;;22.20;73.10;;;;;;5069821;28;20059;-48
2022/09/13 18:16:06;;;;;;;6.55;3.70;;;22.00;73.40;;;;;;5069836;28;20333;-47
2022/09/13 18:18:34;;;;;;;5.53;3.00;;;21.90;73.40;;;;;;5069531;28;20393;-49
2022/09/13 18:20:59;;;;;;;5.28;3.30;;;21.90;73.50;;;;;;5069607;28;20043;-47
2022/09/13 18:23:27;;;;;;;6.38;2.47;;;21.80;73.50;;;;;;5069978;28;20017;-46
2022/09/13 18:26:06;;;;;;;3.25;2.63;;;21.80;73.70;;;;;;5069701;28;20025;-46
2022/09/13 18:28:33;;;;;;;6.80;2.92;;;21.80;73.80;;;;;;5069724;28;20095;-49
2022/09/13 18:31:01;;;;;;;3.45;2.63;;;21.70;73.90;;;;;;5068426;28;20357;-47
2022/09/13 18:33:27;;;;;;;6.68;3.50;;;21.70;74.00;;;;;;5069221;28;20073;-48
2022/09/13 18:35:59;;;;;;;13.07;3.85;;;21.60;74.10;;;;;;5068125;28;20024;-48
2022/09/13 18:38:25;;;;;;;6.80;2.90;;;21.60;74.20;;;;;;5069934;28;20063;-51
2022/09/13 18:41:13;;;;;;;6.57;3.55;;;21.50;74.40;;;;;;5068307;28;20024;-51
2022/09/13 18:43:40;;;;;;;3.15;2.67;;;21.60;74.60;;;;;;5068054;28;20109;-46
2022/09/13 18:46:12;;;;;;;6.20;2.70;;;21.50;74.60;;;;;;5069996;28;20459;-46
2022/09/13 18:48:42;;;;;;;3.30;2.42;;;21.50;74.80;;;;;;5069220;28;20377;-47
2022/09/13 18:51:10;;;;;;;12.13;3.20;;;21.50;75.00;;;;;;5069929;28;20029;-48
2022/09/13 18:53:36;;;;;;;8.73;3.45;;;21.40;75.00;;;;;;5069488;28;20051;-48
2022/09/13 18:56:05;;;;;;;3.05;1.95;;;21.40;75.20;;;;;;5069690;28;20401;-50
2022/09/13 18:58:32;;;;;;;1.45;1.35;;;21.30;73.10;;;;;;5069204;28;20485;-47
2022/09/13 19:01:06;;;;;;;3.75;1.55;;;21.30;71.50;;;;;;5068671;28;20451;-47
2022/09/13 19:03:32;;;;;;;4.80;1.88;;;21.30;70.90;;;;;;5067738;28;20024;-48
2022/09/13 19:06:16;;;;;;;3.65;1.77;;;21.30;71.10;;;;;;5069169;28;20362;-49
2022/09/13 19:08:42;;;;;;;1.77;1.20;;;21.20;70.90;;;;;;5067377;28;20107;-47
2022/09/13 19:11:09;;;;;;;3.83;1.60;;;21.10;70.80;;;;;;5063603;28;20079;-48
2022/09/13 19:13:35;;;;;;;4.53;2.00;;;21.10;70.60;;;;;;5055610;28;20033;-47
2022/09/13 19:16:06;;;;;;;8.70;1.60;;;21.00;70.50;;;;;;5055677;28;20051;-48
2022/09/13 19:18:34;;;;;;;8.40;1.95;;;21.00;70.20;;;;;;5039070;28;20055;-47
2022/09/13 19:21:02;;;;;;;3.05;1.92;;;21.00;70.50;;;;;;5055494;28;20033;-47
2022/09/13 19:23:28;;;;;;;2.38;1.98;;;20.90;70.70;;;;;;5055683;28;20413;-47
2022/09/13 19:25:54;;;;;;;1.45;1.30;;;20.90;69.80;;;;;;5054177;28;20049;-47
2022/09/13 19:28:20;;;;;;;1.25;1.15;;;20.80;69.90;;;;;;5055606;28;20358;-48
2022/09/13 19:30:48;;;;;;;4.35;1.52;;;20.80;69.10;;;;;;5055459;28;20116;-47
2022/09/13 19:33:14;;;;;;;3.00;1.50;;;20.70;69.00;;;;;;5055191;28;20040;-47
2022/09/13 19:35:40;;;;;;;4.70;1.50;;;20.70;69.40;;;;;;5055192;28;20029;-48
2022/09/13 19:38:06;;;;;;;7.90;1.55;;;20.60;69.40;;;;;;5055522;28;20029;-48
2022/09/13 19:40:32;;;;;;;2.22;1.27;;;20.60;68.60;;;;;;5054732;28;20025;-47
2022/09/13 19:42:58;;;;;;;1.90;1.40;;;20.50;67.90;;;;;;5054968;28;20465;-47
2022/09/13 19:45:24;;;;;;;3.35;1.35;;;20.40;67.80;;;;;;5054946;28;20090;-48
2022/09/13 19:47:50;;;;;;;4.10;1.77;;;20.40;67.60;;;;;;5054968;28;20029;-47
2022/09/13 19:50:16;;;;;;;3.47;1.30;;;20.30;67.50;;;;;;5054719;28;20477;-49
2022/09/13 19:52:42;;;;;;;4.03;1.27;;;20.30;67.40;;;;;;5054951;28;20108;-46
2022/09/13 19:55:08;;;;;;;3.00;1.50;;;20.30;67.40;;;;;;5055359;28;20025;-46
2022/09/13 19:57:33;;;;;;;5.18;1.80;;;20.20;67.50;;;;;;5055175;28;20025;-47
2022/09/13 19:59:59;;;;;;;2.60;1.48;;;20.20;67.10;;;;;;5054578;28;20052;-46
2022/09/13 20:02:25;;;;;;;5.68;1.45;;;20.20;66.60;;;;;;5054984;28;20025;-48
2022/09/13 20:04:51;;;;;;;2.88;2.25;;;20.20;66.40;;;;;;5054665;28;20021;-47
2022/09/13 20:07:16;;;;;;;8.75;2.92;;;20.10;65.40;;;;;;5054890;28;20021;-46
2022/09/13 20:09:45;;;;;;;7.85;4.82;;;20.10;65.10;;;;;;5054478;28;20028;-47
2022/09/13 20:12:12;;;;;;;3.97;1.52;;;20.00;65.20;;;;;;5054745;28;20029;-47
2022/09/13 20:14:38;;;;;;;2.25;1.00;;;20.00;64.50;;;;;;5054339;28;20052;-48
2022/09/13 20:17:05;;;;;;;2.08;1.30;;;20.00;64.60;;;;;;5054358;28;20057;-47
2022/09/13 20:19:30;;;;;;;2.97;1.02;;;20.00;64.40;;;;;;5052905;28;20116;-47
2022/09/13 20:21:56;;;;;;;4.22;1.63;;;20.00;64.10;;;;;;5053985;28;20108;-46
2022/09/13 20:24:22;;;;;;;4.50;1.35;;;19.90;63.90;;;;;;5053540;28;20025;-47
2022/09/13 20:26:50;;;;;;;2.90;0.95;;;19.90;63.80;;;;;;5054051;28;20092;-48
2022/09/13 20:29:16;;;;;;;9.07;2.75;;;19.90;64.00;;;;;;5053829;28;20036;-46
2022/09/13 20:31:42;;;;;;;4.15;1.27;;;19.90;63.90;;;;;;5053858;28;20388;-48
2022/09/13 20:34:11;;;;;;;1.42;0.98;;;19.90;63.50;;;;;;5053781;28;20029;-49
2022/09/13 20:36:37;;;;;;;0.65;0.63;;;19.90;63.50;;;;;;5054080;28;20480;-47
2022/09/13 20:39:04;;;;;;;3.10;0.57;;;19.80;63.30;;;;;;5053619;28;20029;-47
2022/09/13 20:41:30;;;;;;;2.85;1.35;;;19.80;63.40;;;;;;5054167;28;20502;-47
2022/09/13 20:43:58;;;;;;;4.20;1.50;;;19.80;63.60;;;;;;5054199;28;20021;-46
2022/09/13 20:46:24;;;;;;;4.03;1.20;;;19.80;63.60;;;;;;5053736;28;20021;-47
2022/09/13 20:48:50;;;;;;;3.83;0.90;;;19.80;63.80;;;;;;5053733;28;20048;-47
2022/09/13 20:51:19;;;;;;;3.05;1.00;;;19.80;63.60;;;;;;5054066;28;20078;-48
2022/09/13 20:53:53;;;;;;;2.20;0.80;;;19.80;63.70;;;;;;5053676;28;20086;-48
2022/09/13 20:56:22;;;;;;;5.78;1.15;;;19.70;63.70;;;;;;5053719;28;20104;-48
2022/09/13 20:58:53;;;;;;;2.55;1.02;;;19.80;63.70;;;;;;5053856;28;20020;-49
2022/09/13 21:01:20;;;;;;;1.38;1.10;;;19.70;64.00;;;;;;5053794;28;20024;-48
2022/09/13 21:03:48;;;;;;;3.13;1.67;;;19.70;64.10;;;;;;5054189;28;20017;-47
2022/09/13 21:06:14;;;;;;;3.75;1.23;;;19.70;64.40;;;;;;5053889;28;20527;-46
2022/09/13 21:08:41;;;;;;;3.65;1.10;;;19.70;64.00;;;;;;5053818;28;20017;-48
2022/09/13 21:11:21;;;;;;;4.88;1.23;;;19.60;64.00;;;;;;5053586;28;20069;-47
2022/09/13 21:13:52;;;;;;;4.93;1.42;;;19.60;64.10;;;;;;5053716;28;20021;-47
2022/09/13 21:16:23;;;;;;;11.50;1.40;;;19.50;64.20;;;;;;5053581;28;20061;-47
2022/09/13 21:18:49;;;;;;;6.53;1.02;;;19.50;64.20;;;;;;5054271;28;20029;-49
2022/09/13 21:21:20;;;;;;;7.38;1.10;;;19.50;64.40;;;;;;5054179;28;20502;-47
2022/09/13 21:23:46;;;;;;;4.03;1.50;;;19.50;64.60;;;;;;5052249;28;20025;-47
2022/09/13 21:26:15;;;;;;;4.80;1.35;;;19.50;64.50;;;;;;5053930;28;20469;-50
2022/09/13 21:28:42;;;;;;;3.17;1.20;;;19.50;64.40;;;;;;5053324;28;20048;-48
2022/09/13 21:31:13;;;;;;;5.00;1.08;;;19.50;64.50;;;;;;5053516;28;20075;-47
2022/09/13 21:33:39;;;;;;;4.32;0.93;;;19.50;64.50;;;;;;5053911;28;20036;-48
2022/09/13 21:36:06;;;;;;;2.78;1.80;;;19.40;64.70;;;;;;5053487;28;20110;-48
2022/09/13 21:38:34;;;;;;;7.28;1.20;;;19.30;64.90;;;;;;5053278;28;20414;-47
2022/09/13 21:41:20;;;;;;;5.82;1.60;;;19.30;65.20;;;;;;5052762;28;20032;-47
2022/09/13 21:43:46;;;;;;;6.57;1.27;;;19.30;65.30;;;;;;5053069;28;20405;-51
2022/09/13 21:46:20;;;;;;;7.20;1.08;;;19.30;65.40;;;;;;5052968;28;20052;-46
2022/09/13 21:48:53;;;;;;;1.95;1.00;;;19.20;65.60;;;;;;5051702;28;20484;-48
2022/09/13 21:51:23;;;;;;;4.18;0.82;;;19.20;65.60;;;;;;5053285;28;20071;-47
2022/09/13 21:53:57;;;;;;;3.28;0.85;;;19.20;65.70;;;;;;5053085;28;20108;-48
2022/09/13 21:56:25;;;;;;;7.82;1.33;;;19.10;65.80;;;;;;5053381;28;20474;-48
2022/09/13 21:59:02;;;;;;;2.70;0.80;;;19.10;65.70;;;;;;5052787;28;20160;-46
2022/09/13 22:01:30;;;;;;;3.35;0.73;;;19.10;65.80;;;;;;5053088;28;20130;-47
2022/09/13 22:03:56;;;;;;;4.63;1.00;;;19.10;65.70;;;;;;5052598;28;20023;-47
2022/09/13 22:06:22;;;;;;;3.60;1.88;;;19.10;65.80;;;;;;5052968;28;20024;-46
2022/09/13 22:08:54;;;;;;;3.42;0.70;;;19.00;65.90;;;;;;5052980;28;20125;-46
2022/09/13 22:11:24;;;;;;;2.75;0.88;;;19.00;66.20;;;;;;5051498;28;20063;-46
2022/09/13 22:13:51;;;;;;;3.92;1.00;;;19.00;66.20;;;;;;5052496;28;20102;-47
2022/09/13 22:16:20;;;;;;;3.50;1.65;;;18.90;66.30;;;;;;5052568;28;20029;-48
2022/09/13 22:18:51;;;;;;;3.38;1.15;;;18.90;66.40;;;;;;5052794;28;20052;-47
2022/09/13 22:21:21;;;;;;;2.80;1.52;;;18.90;66.60;;;;;;5052931;28;20468;-49
2022/09/13 22:23:47;;;;;;;2.72;1.20;;;18.90;66.50;;;;;;5052573;28;20029;-47
2022/09/13 22:26:18;;;;;;;4.55;1.10;;;18.90;66.80;;;;;;5052622;28;20032;-47
2022/09/13 22:28:45;;;;;;;2.45;0.80;;;18.90;66.80;;;;;;5052941;28;20028;-47
2022/09/13 22:31:22;;;;;;;3.70;1.10;;;18.80;66.80;;;;;;5052849;28;20349;-46
2022/09/13 22:33:49;;;;;;;3.05;1.00;;;18.80;66.90;;;;;;5052936;28;20052;-47
2022/09/13 22:36:16;;;;;;;6.82;1.40;;;18.80;67.00;;;;;;5053033;28;20091;-48
2022/09/13 22:38:44;;;;;;;4.60;1.67;;;18.70;67.10;;;;;;5052565;28;20029;-46
2022/09/13 22:41:12;;;;;;;8.20;1.77;;;18.70;67.30;;;;;;5051399;28;20477;-47
2022/09/13 22:43:39;;;;;;;8.23;1.27;;;18.60;67.40;;;;;;5052646;28;20031;-50
2022/09/13 22:46:09;;;;;;;3.00;1.02;;;18.50;67.60;;;;;;5053543;28;20064;-47
2022/09/13 22:48:35;;;;;;;;;;;18.50;67.80;;;;;;5056700;28;20104;-47
2022/09/13 22:51:02;;;;;;;4.68;1.25;;;18.60;67.80;;;;;;5056499;28;19951;-47
2022/09/13 22:53:30;;;;;;;3.17;1.30;;;18.50;68.00;;;;;;5056273;28;20051;-48
2022/09/13 22:56:04;;;;;;;3.13;1.27;;;18.50;68.10;;;;;;5055988;28;20121;-48
2022/09/13 22:58:30;;;;;;;6.95;1.23;;;18.50;68.10;;;;;;5054965;28;20074;-47
2022/09/13 23:01:24;;;;;;;3.63;1.02;;;18.50;68.10;;;;;;5055870;28;20389;-47
2022/09/13 23:03:50;;;;;;;5.13;1.42;;;18.30;68.40;;;;;;5055772;28;20049;-47
2022/09/13 23:06:18;;;;;;;10.50;1.00;;;18.30;68.80;;;;;;5055847;28;20024;-47
2022/09/13 23:08:45;;;;;;;5.25;1.90;;;18.30;69.10;;;;;;5055967;28;20025;-49
2022/09/13 23:11:16;;;;;;;6.40;1.98;;;18.30;69.30;;;;;;5055519;28;20166;-47
2022/09/13 23:13:43;;;;;;;5.45;1.95;;;18.30;69.30;;;;;;5055895;28;20036;-46
2022/09/13 23:16:18;;;;;;;10.70;1.58;;;18.30;69.40;;;;;;5055508;28;20040;-46
2022/09/13 23:18:44;;;;;;;5.63;1.20;;;18.30;69.60;;;;;;5055980;28;20068;-48
2022/09/13 23:21:11;;;;;;;4.63;0.88;;;18.20;69.60;;;;;;5055703;28;20469;-46
2022/09/13 23:23:37;;;;;;;4.97;1.15;;;18.20;69.70;;;;;;5054128;28;20033;-48
2022/09/13 23:26:10;;;;;;;2.40;0.77;;;18.20;69.80;;;;;;5055315;28;20056;-47
2022/09/13 23:28:38;;;;;;;4.35;1.20;;;18.20;69.90;;;;;;5055363;28;20139;-48
2022/09/13 23:31:18;;;;;;;3.13;0.95;;;18.20;70.30;;;;;;5056273;28;20029;-46
2022/09/13 23:33:46;;;;;;;3.65;1.30;;;18.20;70.90;;;;;;5055531;28;20043;-47
2022/09/13 23:36:14;;;;;;;12.48;2.53;;;18.00;71.50;;;;;;5055167;28;20033;-47
2022/09/13 23:38:44;;;;;;;4.18;1.20;;;17.90;72.50;;;;;;5055582;28;20025;-47
2022/09/13 23:41:09;;;;;;;6.25;1.30;;;17.80;72.70;;;;;;5055051;28;20485;-47
2022/09/13 23:43:35;;;;;;;4.85;1.42;;;17.80;73.00;;;;;;5055145;28;20078;-47
2022/09/13 23:46:00;;;;;;;7.93;3.78;;;17.80;72.70;;;;;;5055165;28;20064;-50
2022/09/13 23:48:26;;;;;;;4.53;1.10;;;17.80;72.80;;;;;;5053895;28;20131;-46
2022/09/13 23:51:04;;;;;;;2.88;1.10;;;17.80;73.10;;;;;;5054894;28;20033;-46
2022/09/13 23:53:30;;;;;;;5.15;1.55;;;17.80;72.40;;;;;;5055997;28;20033;-46
2022/09/13 23:55:57;;;;;;;4.60;1.30;;;17.90;72.30;;;;;;5055192;28;20356;-47
2022/09/13 23:58:23;;;;;;;8.05;2.75;;;17.80;72.10;;;;;;5054729;28;20086;-47
